sensor_id;sensor_type;location;lat;lon;timestamp;P1;durP1;ratioP1;P2;durP2;ratioP2
25758;SDS011;13604;52.496;13.456;2024-02-04T00:01:34;13.18;;;3.10;;
25758;SDS011;13604;52.496;13.456;2024-02-04T00:04:00;12.65;;;2.65;;
25758;SDS011;13604;52.496;13.456;2024-02-04T00:06:25;16.92;;;2.80;;
25758;SDS011;13604;52.496;13.456;2024-02-04T00:08:51;15.63;;;3.47;;
25758;SDS011;13604;52.496;13.456;2024-02-04T00:11:16;16.45;;;3.25;;
25758;SDS011;13604;52.496;13.456;2024-02-04T00:13:41;17.25;;;2.80;;
25758;SDS011;13604;52.496;13.456;2024-02-04T00:16:07;20.00;;;3.03;;
25758;SDS011;13604;52.496;13.456;2024-02-04T00:18:32;12.05;;;2.90;;
25758;SDS011;13604;52.496;13.456;2024-02-04T00:20:57;14.13;;;2.65;;
25758;SDS011;13604;52.496;13.456;2024-02-04T00:23:23;16.10;;;2.88;;
25758;SDS011;13604;52.496;13.456;2024-02-04T00:25:48;17.90;;;2.72;;
25758;SDS011;13604;52.496;13.456;2024-02-04T00:28:13;20.55;;;2.90;;
25758;SDS011;13604;52.496;13.456;2024-02-04T00:30:39;23.40;;;2.85;;
25758;SDS011;13604;52.496;13.456;2024-02-04T00:33:04;12.35;;;2.80;;
25758;SDS011;13604;52.496;13.456;2024-02-04T00:35:30;12.60;;;3.10;;
25758;SDS011;13604;52.496;13.456;2024-02-04T00:37:55;19.10;;;3.10;;
25758;SDS011;13604;52.496;13.456;2024-02-04T00:40:21;14.35;;;3.38;;
25758;SDS011;13604;52.496;13.456;2024-02-04T00:42:46;13.80;;;3.80;;
25758;SDS011;13604;52.496;13.456;2024-02-04T00:45:11;21.45;;;3.10;;
25758;SDS011;13604;52.496;13.456;2024-02-04T00:47:37;21.77;;;3.70;;
25758;SDS011;13604;52.496;13.456;2024-02-04T00:50:02;14.75;;;3.03;;
25758;SDS011;13604;52.496;13.456;2024-02-04T00:52:27;15.05;;;3.72;;
25758;SDS011;13604;52.496;13.456;2024-02-04T00:54:53;20.80;;;3.30;;
25758;SDS011;13604;52.496;13.456;2024-02-04T00:57:18;19.42;;;3.15;;
25758;SDS011;13604;52.496;13.456;2024-02-04T00:59:43;14.55;;;3.30;;
25758;SDS011;13604;52.496;13.456;2024-02-04T01:02:09;21.08;;;3.53;;
25758;SDS011;13604;52.496;13.456;2024-02-04T01:04:34;19.55;;;3.47;;
25758;SDS011;13604;52.496;13.456;2024-02-04T01:06:59;19.52;;;3.45;;
25758;SDS011;13604;52.496;13.456;2024-02-04T01:09:25;14.77;;;2.97;;
25758;SDS011;13604;52.496;13.456;2024-02-04T01:11:50;14.63;;;2.40;;
25758;SDS011;13604;52.496;13.456;2024-02-04T01:14:16;13.57;;;2.97;;
25758;SDS011;13604;52.496;13.456;2024-02-04T01:16:41;19.42;;;3.30;;
25758;SDS011;13604;52.496;13.456;2024-02-04T01:19:06;22.67;;;3.33;;
25758;SDS011;13604;52.496;13.456;2024-02-04T01:21:31;22.58;;;4.03;;
25758;SDS011;13604;52.496;13.456;2024-02-04T01:23:57;22.98;;;4.15;;
25758;SDS011;13604;52.496;13.456;2024-02-04T01:26:22;14.52;;;3.05;;
25758;SDS011;13604;52.496;13.456;2024-02-04T01:28:49;25.08;;;2.80;;
25758;SDS011;13604;52.496;13.456;2024-02-04T01:31:14;20.05;;;2.90;;
25758;SDS011;13604;52.496;13.456;2024-02-04T01:33:40;15.68;;;3.30;;
25758;SDS011;13604;52.496;13.456;2024-02-04T01:36:05;19.58;;;2.90;;
25758;SDS011;13604;52.496;13.456;2024-02-04T01:38:30;22.40;;;3.75;;
25758;SDS011;13604;52.496;13.456;2024-02-04T01:40:56;16.80;;;2.75;;
25758;SDS011;13604;52.496;13.456;2024-02-04T01:43:22;14.80;;;3.20;;
25758;SDS011;13604;52.496;13.456;2024-02-04T01:45:48;20.35;;;3.53;;
25758;SDS011;13604;52.496;13.456;2024-02-04T01:48:15;23.27;;;3.22;;
25758;SDS011;13604;52.496;13.456;2024-02-04T01:50:40;27.90;;;3.70;;
25758;SDS011;13604;52.496;13.456;2024-02-04T01:53:06;18.42;;;3.45;;
25758;SDS011;13604;52.496;13.456;2024-02-04T01:55:32;18.88;;;3.10;;
25758;SDS011;13604;52.496;13.456;2024-02-04T01:57:57;14.20;;;3.25;;
25758;SDS011;13604;52.496;13.456;2024-02-04T02:00:22;20.83;;;3.13;;
25758;SDS011;13604;52.496;13.456;2024-02-04T02:02:48;15.95;;;3.00;;
25758;SDS011;13604;52.496;13.456;2024-02-04T02:05:14;15.02;;;3.13;;
25758;SDS011;13604;52.496;13.456;2024-02-04T02:07:40;18.90;;;4.28;;
25758;SDS011;13604;52.496;13.456;2024-02-04T02:10:05;16.48;;;3.15;;
25758;SDS011;13604;52.496;13.456;2024-02-04T02:12:40;21.63;;;3.55;;
25758;SDS011;13604;52.496;13.456;2024-02-04T02:15:15;12.55;;;3.13;;
25758;SDS011;13604;52.496;13.456;2024-02-04T02:17:48;11.77;;;3.40;;
25758;SDS011;13604;52.496;13.456;2024-02-04T02:20:31;14.60;;;2.90;;
25758;SDS011;13604;52.496;13.456;2024-02-04T02:23:07;12.05;;;2.80;;
25758;SDS011;13604;52.496;13.456;2024-02-04T02:25:36;15.00;;;3.05;;
25758;SDS011;13604;52.496;13.456;2024-02-04T02:28:02;25.05;;;3.38;;
25758;SDS011;13604;52.496;13.456;2024-02-04T02:30:28;20.77;;;3.45;;
25758;SDS011;13604;52.496;13.456;2024-02-04T02:32:53;16.08;;;2.67;;
25758;SDS011;13604;52.496;13.456;2024-02-04T02:35:18;20.77;;;3.63;;
25758;SDS011;13604;52.496;13.456;2024-02-04T02:38:05;18.73;;;2.85;;
25758;SDS011;13604;52.496;13.456;2024-02-04T02:40:49;17.50;;;3.97;;
25758;SDS011;13604;52.496;13.456;2024-02-04T02:43:18;27.70;;;3.85;;
25758;SDS011;13604;52.496;13.456;2024-02-04T02:45:44;19.35;;;2.85;;
25758;SDS011;13604;52.496;13.456;2024-02-04T02:48:10;22.95;;;3.35;;
25758;SDS011;13604;52.496;13.456;2024-02-04T02:50:36;20.38;;;3.95;;
25758;SDS011;13604;52.496;13.456;2024-02-04T02:53:03;19.90;;;3.90;;
25758;SDS011;13604;52.496;13.456;2024-02-04T02:55:28;18.52;;;3.13;;
25758;SDS011;13604;52.496;13.456;2024-02-04T02:57:53;19.65;;;3.42;;
25758;SDS011;13604;52.496;13.456;2024-02-04T03:00:19;20.73;;;3.60;;
25758;SDS011;13604;52.496;13.456;2024-02-04T03:02:44;21.95;;;3.67;;
25758;SDS011;13604;52.496;13.456;2024-02-04T03:05:09;18.02;;;3.40;;
25758;SDS011;13604;52.496;13.456;2024-02-04T03:07:35;17.15;;;3.80;;
25758;SDS011;13604;52.496;13.456;2024-02-04T03:10:00;14.13;;;2.80;;
25758;SDS011;13604;52.496;13.456;2024-02-04T03:12:25;16.95;;;3.42;;
25758;SDS011;13604;52.496;13.456;2024-02-04T03:14:51;12.18;;;3.33;;
25758;SDS011;13604;52.496;13.456;2024-02-04T03:17:16;16.63;;;3.30;;
25758;SDS011;13604;52.496;13.456;2024-02-04T03:19:47;23.42;;;4.15;;
25758;SDS011;13604;52.496;13.456;2024-02-04T03:22:12;17.30;;;3.53;;
25758;SDS011;13604;52.496;13.456;2024-02-04T03:24:38;22.67;;;4.50;;
25758;SDS011;13604;52.496;13.456;2024-02-04T03:27:03;28.42;;;5.00;;
25758;SDS011;13604;52.496;13.456;2024-02-04T03:29:28;24.67;;;4.22;;
25758;SDS011;13604;52.496;13.456;2024-02-04T03:31:55;18.33;;;4.32;;
25758;SDS011;13604;52.496;13.456;2024-02-04T03:34:21;9.50;;;3.60;;
25758;SDS011;13604;52.496;13.456;2024-02-04T03:36:46;19.13;;;3.70;;
25758;SDS011;13604;52.496;13.456;2024-02-04T03:39:11;16.95;;;3.70;;
25758;SDS011;13604;52.496;13.456;2024-02-04T03:41:36;15.13;;;3.65;;
25758;SDS011;13604;52.496;13.456;2024-02-04T03:44:02;15.90;;;4.07;;
25758;SDS011;13604;52.496;13.456;2024-02-04T03:46:27;14.82;;;4.15;;
25758;SDS011;13604;52.496;13.456;2024-02-04T03:48:52;16.45;;;3.90;;
25758;SDS011;13604;52.496;13.456;2024-02-04T03:51:18;11.95;;;3.80;;
25758;SDS011;13604;52.496;13.456;2024-02-04T03:53:44;15.23;;;4.20;;
25758;SDS011;13604;52.496;13.456;2024-02-04T03:56:10;15.93;;;4.28;;
25758;SDS011;13604;52.496;13.456;2024-02-04T03:58:35;16.67;;;3.33;;
25758;SDS011;13604;52.496;13.456;2024-02-04T04:01:01;19.95;;;4.50;;
25758;SDS011;13604;52.496;13.456;2024-02-04T04:03:26;15.43;;;4.07;;
25758;SDS011;13604;52.496;13.456;2024-02-04T04:05:53;13.32;;;4.25;;
25758;SDS011;13604;52.496;13.456;2024-02-04T04:08:18;13.70;;;4.30;;
25758;SDS011;13604;52.496;13.456;2024-02-04T04:10:44;19.90;;;3.75;;
25758;SDS011;13604;52.496;13.456;2024-02-04T04:13:09;11.60;;;3.63;;
25758;SDS011;13604;52.496;13.456;2024-02-04T04:15:35;16.50;;;3.72;;
25758;SDS011;13604;52.496;13.456;2024-02-04T04:18:00;12.68;;;3.38;;
25758;SDS011;13604;52.496;13.456;2024-02-04T04:20:25;9.82;;;3.75;;
25758;SDS011;13604;52.496;13.456;2024-02-04T04:22:51;12.60;;;3.28;;
25758;SDS011;13604;52.496;13.456;2024-02-04T04:25:16;11.38;;;3.78;;
25758;SDS011;13604;52.496;13.456;2024-02-04T04:27:42;18.02;;;3.58;;
25758;SDS011;13604;52.496;13.456;2024-02-04T04:30:08;10.38;;;3.33;;
25758;SDS011;13604;52.496;13.456;2024-02-04T04:32:34;12.48;;;3.35;;
25758;SDS011;13604;52.496;13.456;2024-02-04T04:34:59;17.48;;;3.78;;
25758;SDS011;13604;52.496;13.456;2024-02-04T04:37:25;16.58;;;3.47;;
25758;SDS011;13604;52.496;13.456;2024-02-04T04:39:50;10.73;;;3.17;;
25758;SDS011;13604;52.496;13.456;2024-02-04T04:42:16;16.58;;;3.13;;
25758;SDS011;13604;52.496;13.456;2024-02-04T04:44:41;10.20;;;3.30;;
25758;SDS011;13604;52.496;13.456;2024-02-04T04:47:06;15.43;;;3.05;;
25758;SDS011;13604;52.496;13.456;2024-02-04T04:49:32;13.68;;;3.33;;
25758;SDS011;13604;52.496;13.456;2024-02-04T04:51:57;12.05;;;3.17;;
25758;SDS011;13604;52.496;13.456;2024-02-04T04:54:22;15.20;;;3.40;;
25758;SDS011;13604;52.496;13.456;2024-02-04T04:56:48;12.55;;;3.42;;
25758;SDS011;13604;52.496;13.456;2024-02-04T04:59:14;7.93;;;2.63;;
25758;SDS011;13604;52.496;13.456;2024-02-04T05:01:46;11.93;;;2.95;;
25758;SDS011;13604;52.496;13.456;2024-02-04T05:04:12;15.18;;;3.08;;
25758;SDS011;13604;52.496;13.456;2024-02-04T05:06:38;15.75;;;3.63;;
25758;SDS011;13604;52.496;13.456;2024-02-04T05:09:03;12.75;;;3.03;;
25758;SDS011;13604;52.496;13.456;2024-02-04T05:11:28;14.57;;;2.60;;
25758;SDS011;13604;52.496;13.456;2024-02-04T05:13:54;13.93;;;2.50;;
25758;SDS011;13604;52.496;13.456;2024-02-04T05:16:19;12.18;;;2.65;;
25758;SDS011;13604;52.496;13.456;2024-02-04T05:18:45;9.68;;;2.70;;
25758;SDS011;13604;52.496;13.456;2024-02-04T05:21:10;14.30;;;2.70;;
25758;SDS011;13604;52.496;13.456;2024-02-04T05:23:36;11.52;;;2.67;;
25758;SDS011;13604;52.496;13.456;2024-02-04T05:26:02;15.65;;;2.97;;
25758;SDS011;13604;52.496;13.456;2024-02-04T05:28:28;13.60;;;2.75;;
25758;SDS011;13604;52.496;13.456;2024-02-04T05:30:54;11.32;;;2.55;;
25758;SDS011;13604;52.496;13.456;2024-02-04T05:33:19;29.50;;;3.83;;
25758;SDS011;13604;52.496;13.456;2024-02-04T05:35:44;14.02;;;2.53;;
25758;SDS011;13604;52.496;13.456;2024-02-04T05:38:10;9.52;;;2.75;;
25758;SDS011;13604;52.496;13.456;2024-02-04T05:40:35;12.57;;;2.85;;
25758;SDS011;13604;52.496;13.456;2024-02-04T05:43:00;9.52;;;2.58;;
25758;SDS011;13604;52.496;13.456;2024-02-04T05:45:31;17.15;;;3.03;;
25758;SDS011;13604;52.496;13.456;2024-02-04T05:47:56;6.85;;;2.03;;
25758;SDS011;13604;52.496;13.456;2024-02-04T05:50:22;15.20;;;3.42;;
25758;SDS011;13604;52.496;13.456;2024-02-04T05:52:47;10.50;;;2.45;;
25758;SDS011;13604;52.496;13.456;2024-02-04T05:55:13;14.52;;;2.65;;
25758;SDS011;13604;52.496;13.456;2024-02-04T05:57:39;13.25;;;3.00;;
25758;SDS011;13604;52.496;13.456;2024-02-04T06:00:04;10.55;;;2.47;;
25758;SDS011;13604;52.496;13.456;2024-02-04T06:02:30;11.57;;;3.17;;
25758;SDS011;13604;52.496;13.456;2024-02-04T06:04:56;13.20;;;2.83;;
25758;SDS011;13604;52.496;13.456;2024-02-04T06:07:21;12.48;;;2.75;;
25758;SDS011;13604;52.496;13.456;2024-02-04T06:09:46;12.38;;;2.55;;
25758;SDS011;13604;52.496;13.456;2024-02-04T06:12:11;12.60;;;2.78;;
25758;SDS011;13604;52.496;13.456;2024-02-04T06:14:37;10.50;;;3.10;;
25758;SDS011;13604;52.496;13.456;2024-02-04T06:17:04;11.02;;;2.97;;
25758;SDS011;13604;52.496;13.456;2024-02-04T06:19:30;12.95;;;2.83;;
25758;SDS011;13604;52.496;13.456;2024-02-04T06:21:55;11.20;;;2.90;;
25758;SDS011;13604;52.496;13.456;2024-02-04T06:24:20;14.90;;;3.03;;
25758;SDS011;13604;52.496;13.456;2024-02-04T06:26:46;13.60;;;3.47;;
25758;SDS011;13604;52.496;13.456;2024-02-04T06:29:11;12.50;;;2.58;;
25758;SDS011;13604;52.496;13.456;2024-02-04T06:31:36;8.60;;;2.97;;
25758;SDS011;13604;52.496;13.456;2024-02-04T06:34:02;16.83;;;3.80;;
25758;SDS011;13604;52.496;13.456;2024-02-04T06:36:27;15.15;;;3.95;;
25758;SDS011;13604;52.496;13.456;2024-02-04T06:38:53;10.25;;;2.92;;
25758;SDS011;13604;52.496;13.456;2024-02-04T06:41:18;13.55;;;3.40;;
25758;SDS011;13604;52.496;13.456;2024-02-04T06:43:43;11.82;;;3.80;;
25758;SDS011;13604;52.496;13.456;2024-02-04T06:46:08;8.82;;;3.80;;
25758;SDS011;13604;52.496;13.456;2024-02-04T06:48:34;13.45;;;4.47;;
25758;SDS011;13604;52.496;13.456;2024-02-04T06:50:59;21.95;;;4.20;;
25758;SDS011;13604;52.496;13.456;2024-02-04T06:53:24;12.38;;;4.45;;
25758;SDS011;13604;52.496;13.456;2024-02-04T06:55:50;16.63;;;5.57;;
25758;SDS011;13604;52.496;13.456;2024-02-04T06:58:16;11.75;;;4.90;;
25758;SDS011;13604;52.496;13.456;2024-02-04T07:00:41;13.18;;;4.93;;
25758;SDS011;13604;52.496;13.456;2024-02-04T07:03:06;13.43;;;4.88;;
25758;SDS011;13604;52.496;13.456;2024-02-04T07:05:32;12.32;;;4.68;;
25758;SDS011;13604;52.496;13.456;2024-02-04T07:07:58;14.63;;;5.55;;
25758;SDS011;13604;52.496;13.456;2024-02-04T07:10:24;15.50;;;5.55;;
25758;SDS011;13604;52.496;13.456;2024-02-04T07:12:49;17.17;;;5.38;;
25758;SDS011;13604;52.496;13.456;2024-02-04T07:15:14;14.05;;;5.18;;
25758;SDS011;13604;52.496;13.456;2024-02-04T07:17:39;15.57;;;5.15;;
25758;SDS011;13604;52.496;13.456;2024-02-04T07:20:05;15.32;;;5.68;;
25758;SDS011;13604;52.496;13.456;2024-02-04T07:22:31;14.88;;;5.80;;
25758;SDS011;13604;52.496;13.456;2024-02-04T07:24:56;14.30;;;6.25;;
25758;SDS011;13604;52.496;13.456;2024-02-04T07:27:21;22.80;;;5.35;;
25758;SDS011;13604;52.496;13.456;2024-02-04T07:29:47;15.50;;;5.28;;
25758;SDS011;13604;52.496;13.456;2024-02-04T07:32:12;13.57;;;5.32;;
25758;SDS011;13604;52.496;13.456;2024-02-04T07:34:38;15.73;;;4.90;;
25758;SDS011;13604;52.496;13.456;2024-02-04T07:37:04;16.38;;;4.68;;
25758;SDS011;13604;52.496;13.456;2024-02-04T07:39:29;17.17;;;5.88;;
25758;SDS011;13604;52.496;13.456;2024-02-04T07:41:55;23.38;;;6.13;;
25758;SDS011;13604;52.496;13.456;2024-02-04T07:44:25;14.75;;;4.82;;
25758;SDS011;13604;52.496;13.456;2024-02-04T07:46:50;17.25;;;5.03;;
25758;SDS011;13604;52.496;13.456;2024-02-04T07:49:16;16.63;;;5.22;;
25758;SDS011;13604;52.496;13.456;2024-02-04T07:51:41;13.20;;;5.35;;
25758;SDS011;13604;52.496;13.456;2024-02-04T07:54:06;13.57;;;5.55;;
25758;SDS011;13604;52.496;13.456;2024-02-04T07:56:31;12.88;;;5.28;;
25758;SDS011;13604;52.496;13.456;2024-02-04T07:58:57;17.23;;;5.53;;
25758;SDS011;13604;52.496;13.456;2024-02-04T08:01:22;11.68;;;5.72;;
25758;SDS011;13604;52.496;13.456;2024-02-04T08:03:49;14.32;;;5.15;;
25758;SDS011;13604;52.496;13.456;2024-02-04T08:06:14;15.90;;;5.28;;
25758;SDS011;13604;52.496;13.456;2024-02-04T08:08:39;13.48;;;5.70;;
25758;SDS011;13604;52.496;13.456;2024-02-04T08:11:06;18.15;;;5.63;;
25758;SDS011;13604;52.496;13.456;2024-02-04T08:13:31;13.85;;;5.03;;
25758;SDS011;13604;52.496;13.456;2024-02-04T08:15:56;11.88;;;5.68;;
25758;SDS011;13604;52.496;13.456;2024-02-04T08:18:21;17.33;;;5.00;;
25758;SDS011;13604;52.496;13.456;2024-02-04T08:20:47;19.35;;;5.00;;
25758;SDS011;13604;52.496;13.456;2024-02-04T08:23:12;18.17;;;5.50;;
25758;SDS011;13604;52.496;13.456;2024-02-04T08:25:37;15.60;;;6.07;;
25758;SDS011;13604;52.496;13.456;2024-02-04T08:28:03;19.00;;;5.07;;
25758;SDS011;13604;52.496;13.456;2024-02-04T08:30:29;16.00;;;5.22;;
25758;SDS011;13604;52.496;13.456;2024-02-04T08:32:54;18.92;;;4.68;;
25758;SDS011;13604;52.496;13.456;2024-02-04T08:35:19;7.88;;;3.83;;
25758;SDS011;13604;52.496;13.456;2024-02-04T08:37:45;12.85;;;4.25;;
25758;SDS011;13604;52.496;13.456;2024-02-04T08:40:10;13.52;;;4.45;;
25758;SDS011;13604;52.496;13.456;2024-02-04T08:42:35;14.85;;;4.18;;
25758;SDS011;13604;52.496;13.456;2024-02-04T08:45:01;13.85;;;4.40;;
25758;SDS011;13604;52.496;13.456;2024-02-04T08:47:26;14.45;;;4.00;;
25758;SDS011;13604;52.496;13.456;2024-02-04T08:49:51;10.80;;;3.42;;
25758;SDS011;13604;52.496;13.456;2024-02-04T08:52:16;11.55;;;3.55;;
25758;SDS011;13604;52.496;13.456;2024-02-04T08:54:42;18.00;;;7.22;;
25758;SDS011;13604;52.496;13.456;2024-02-04T08:57:07;14.52;;;3.47;;
25758;SDS011;13604;52.496;13.456;2024-02-04T08:59:32;13.93;;;3.65;;
25758;SDS011;13604;52.496;13.456;2024-02-04T09:01:58;18.38;;;3.63;;
25758;SDS011;13604;52.496;13.456;2024-02-04T09:04:23;12.88;;;3.47;;
25758;SDS011;13604;52.496;13.456;2024-02-04T09:06:48;8.10;;;3.03;;
25758;SDS011;13604;52.496;13.456;2024-02-04T09:09:14;17.70;;;3.47;;
25758;SDS011;13604;52.496;13.456;2024-02-04T09:11:40;18.15;;;3.38;;
25758;SDS011;13604;52.496;13.456;2024-02-04T09:14:05;17.67;;;3.47;;
25758;SDS011;13604;52.496;13.456;2024-02-04T09:16:30;17.90;;;3.47;;
25758;SDS011;13604;52.496;13.456;2024-02-04T09:18:56;15.48;;;3.40;;
25758;SDS011;13604;52.496;13.456;2024-02-04T09:21:21;12.90;;;3.13;;
25758;SDS011;13604;52.496;13.456;2024-02-04T09:23:47;19.67;;;3.35;;
25758;SDS011;13604;52.496;13.456;2024-02-04T09:26:12;17.00;;;3.15;;
25758;SDS011;13604;52.496;13.456;2024-02-04T09:28:37;10.40;;;2.97;;
25758;SDS011;13604;52.496;13.456;2024-02-04T09:31:03;16.52;;;3.03;;
25758;SDS011;13604;52.496;13.456;2024-02-04T09:33:28;12.68;;;3.25;;
25758;SDS011;13604;52.496;13.456;2024-02-04T09:35:53;12.48;;;2.80;;
25758;SDS011;13604;52.496;13.456;2024-02-04T09:38:19;8.63;;;3.03;;
25758;SDS011;13604;52.496;13.456;2024-02-04T09:40:45;12.82;;;2.67;;
25758;SDS011;13604;52.496;13.456;2024-02-04T09:43:10;12.15;;;3.20;;
25758;SDS011;13604;52.496;13.456;2024-02-04T09:45:36;8.52;;;3.83;;
25758;SDS011;13604;52.496;13.456;2024-02-04T09:48:03;13.45;;;2.70;;
25758;SDS011;13604;52.496;13.456;2024-02-04T09:50:29;7.72;;;2.38;;
25758;SDS011;13604;52.496;13.456;2024-02-04T09:52:55;14.27;;;2.90;;
25758;SDS011;13604;52.496;13.456;2024-02-04T09:55:23;11.13;;;2.30;;
25758;SDS011;13604;52.496;13.456;2024-02-04T09:57:50;12.23;;;2.33;;
25758;SDS011;13604;52.496;13.456;2024-02-04T10:00:15;18.33;;;4.93;;
25758;SDS011;13604;52.496;13.456;2024-02-04T10:02:45;7.43;;;1.80;;
25758;SDS011;13604;52.496;13.456;2024-02-04T10:05:12;9.98;;;2.35;;
25758;SDS011;13604;52.496;13.456;2024-02-04T10:07:38;15.02;;;2.88;;
25758;SDS011;13604;52.496;13.456;2024-02-04T10:10:04;14.40;;;2.50;;
25758;SDS011;13604;52.496;13.456;2024-02-04T10:12:30;8.85;;;2.42;;
25758;SDS011;13604;52.496;13.456;2024-02-04T10:14:55;7.55;;;2.50;;
25758;SDS011;13604;52.496;13.456;2024-02-04T10:17:21;10.30;;;2.10;;
25758;SDS011;13604;52.496;13.456;2024-02-04T10:19:47;11.32;;;1.90;;
25758;SDS011;13604;52.496;13.456;2024-02-04T10:22:13;6.65;;;1.67;;
25758;SDS011;13604;52.496;13.456;2024-02-04T10:24:38;10.73;;;1.95;;
25758;SDS011;13604;52.496;13.456;2024-02-04T10:27:04;8.13;;;1.90;;
25758;SDS011;13604;52.496;13.456;2024-02-04T10:29:29;7.32;;;2.35;;
25758;SDS011;13604;52.496;13.456;2024-02-04T10:31:55;7.05;;;1.95;;
25758;SDS011;13604;52.496;13.456;2024-02-04T10:34:21;11.57;;;1.80;;
25758;SDS011;13604;52.496;13.456;2024-02-04T10:36:47;9.27;;;1.92;;
25758;SDS011;13604;52.496;13.456;2024-02-04T10:39:13;9.93;;;2.53;;
25758;SDS011;13604;52.496;13.456;2024-02-04T10:41:40;9.90;;;1.67;;
25758;SDS011;13604;52.496;13.456;2024-02-04T10:44:16;11.10;;;2.20;;
25758;SDS011;13604;52.496;13.456;2024-02-04T10:46:42;9.73;;;2.17;;
25758;SDS011;13604;52.496;13.456;2024-02-04T10:49:13;7.55;;;1.88;;
25758;SDS011;13604;52.496;13.456;2024-02-04T10:51:39;8.82;;;1.83;;
25758;SDS011;13604;52.496;13.456;2024-02-04T10:54:06;12.18;;;2.42;;
25758;SDS011;13604;52.496;13.456;2024-02-04T10:56:45;7.97;;;1.80;;
25758;SDS011;13604;52.496;13.456;2024-02-04T10:59:11;9.98;;;2.22;;
25758;SDS011;13604;52.496;13.456;2024-02-04T11:01:39;7.85;;;1.88;;
25758;SDS011;13604;52.496;13.456;2024-02-04T11:04:10;8.63;;;1.83;;
25758;SDS011;13604;52.496;13.456;2024-02-04T11:06:38;9.90;;;1.83;;
25758;SDS011;13604;52.496;13.456;2024-02-04T11:09:06;7.60;;;1.98;;
25758;SDS011;13604;52.496;13.456;2024-02-04T11:11:33;8.70;;;2.22;;
25758;SDS011;13604;52.496;13.456;2024-02-04T11:14:00;6.88;;;1.83;;
25758;SDS011;13604;52.496;13.456;2024-02-04T11:16:33;7.82;;;1.85;;
25758;SDS011;13604;52.496;13.456;2024-02-04T11:19:23;8.68;;;2.13;;
25758;SDS011;13604;52.496;13.456;2024-02-04T11:22:05;5.60;;;2.13;;
25758;SDS011;13604;52.496;13.456;2024-02-04T11:27:26;9.10;;;2.10;;
25758;SDS011;13604;52.496;13.456;2024-02-04T11:29:52;12.23;;;2.35;;
25758;SDS011;13604;52.496;13.456;2024-02-04T11:32:17;9.90;;;2.22;;
25758;SDS011;13604;52.496;13.456;2024-02-04T11:34:44;10.43;;;2.30;;
25758;SDS011;13604;52.496;13.456;2024-02-04T11:37:16;8.48;;;2.20;;
25758;SDS011;13604;52.496;13.456;2024-02-04T11:39:53;12.32;;;2.35;;
25758;SDS011;13604;52.496;13.456;2024-02-04T11:42:22;8.80;;;2.40;;
25758;SDS011;13604;52.496;13.456;2024-02-04T11:44:48;13.00;;;2.08;;
25758;SDS011;13604;52.496;13.456;2024-02-04T11:47:23;8.57;;;2.17;;
25758;SDS011;13604;52.496;13.456;2024-02-04T11:49:55;16.02;;;2.47;;
25758;SDS011;13604;52.496;13.456;2024-02-04T11:52:22;9.75;;;2.28;;
25758;SDS011;13604;52.496;13.456;2024-02-04T11:54:47;4.68;;;1.90;;
25758;SDS011;13604;52.496;13.456;2024-02-04T11:57:13;8.40;;;2.28;;
25758;SDS011;13604;52.496;13.456;2024-02-04T11:59:40;8.63;;;2.30;;
25758;SDS011;13604;52.496;13.456;2024-02-04T12:02:07;6.80;;;2.00;;
25758;SDS011;13604;52.496;13.456;2024-02-04T12:04:32;9.65;;;2.10;;
25758;SDS011;13604;52.496;13.456;2024-02-04T12:06:58;8.77;;;2.03;;
25758;SDS011;13604;52.496;13.456;2024-02-04T12:09:23;10.15;;;2.03;;
25758;SDS011;13604;52.496;13.456;2024-02-04T12:11:51;8.75;;;1.80;;
25758;SDS011;13604;52.496;13.456;2024-02-04T12:14:18;7.72;;;1.83;;
25758;SDS011;13604;52.496;13.456;2024-02-04T12:16:43;9.70;;;2.03;;
25758;SDS011;13604;52.496;13.456;2024-02-04T12:19:09;11.10;;;2.40;;
25758;SDS011;13604;52.496;13.456;2024-02-04T12:21:35;9.57;;;2.40;;
25758;SDS011;13604;52.496;13.456;2024-02-04T12:24:01;7.65;;;2.65;;
25758;SDS011;13604;52.496;13.456;2024-02-04T12:26:26;7.70;;;2.45;;
25758;SDS011;13604;52.496;13.456;2024-02-04T12:28:52;8.50;;;2.50;;
25758;SDS011;13604;52.496;13.456;2024-02-04T12:31:18;9.85;;;2.40;;
25758;SDS011;13604;52.496;13.456;2024-02-04T12:33:53;12.18;;;2.20;;
25758;SDS011;13604;52.496;13.456;2024-02-04T12:36:22;3.70;;;1.70;;
25758;SDS011;13604;52.496;13.456;2024-02-04T12:38:52;7.72;;;2.60;;
25758;SDS011;13604;52.496;13.456;2024-02-04T12:41:18;15.10;;;3.70;;
25758;SDS011;13604;52.496;13.456;2024-02-04T12:43:48;10.50;;;2.20;;
25758;SDS011;13604;52.496;13.456;2024-02-04T12:46:14;10.90;;;2.45;;
25758;SDS011;13604;52.496;13.456;2024-02-04T12:48:40;9.70;;;2.15;;
25758;SDS011;13604;52.496;13.456;2024-02-04T12:51:05;12.18;;;2.50;;
25758;SDS011;13604;52.496;13.456;2024-02-04T12:53:31;8.48;;;2.30;;
25758;SDS011;13604;52.496;13.456;2024-02-04T12:55:59;6.68;;;2.35;;
25758;SDS011;13604;52.496;13.456;2024-02-04T12:58:25;9.32;;;2.67;;
25758;SDS011;13604;52.496;13.456;2024-02-04T13:00:58;10.55;;;2.25;;
25758;SDS011;13604;52.496;13.456;2024-02-04T13:03:25;12.02;;;2.55;;
25758;SDS011;13604;52.496;13.456;2024-02-04T13:05:50;8.80;;;2.38;;
25758;SDS011;13604;52.496;13.456;2024-02-04T13:08:18;7.97;;;1.63;;
25758;SDS011;13604;52.496;13.456;2024-02-04T13:10:44;10.02;;;2.42;;
25758;SDS011;13604;52.496;13.456;2024-02-04T13:13:20;8.20;;;2.20;;
25758;SDS011;13604;52.496;13.456;2024-02-04T13:15:46;16.55;;;3.47;;
25758;SDS011;13604;52.496;13.456;2024-02-04T13:18:11;10.48;;;1.98;;
25758;SDS011;13604;52.496;13.456;2024-02-04T13:20:40;7.05;;;1.88;;
25758;SDS011;13604;52.496;13.456;2024-02-04T13:23:06;11.85;;;2.53;;
25758;SDS011;13604;52.496;13.456;2024-02-04T13:25:32;8.95;;;2.60;;
25758;SDS011;13604;52.496;13.456;2024-02-04T13:27:57;11.07;;;2.00;;
25758;SDS011;13604;52.496;13.456;2024-02-04T13:30:23;10.18;;;1.98;;
25758;SDS011;13604;52.496;13.456;2024-02-04T13:32:48;12.48;;;2.53;;
25758;SDS011;13604;52.496;13.456;2024-02-04T13:35:14;10.30;;;2.00;;
25758;SDS011;13604;52.496;13.456;2024-02-04T13:37:41;13.75;;;2.33;;
25758;SDS011;13604;52.496;13.456;2024-02-04T13:40:20;12.43;;;1.92;;
25758;SDS011;13604;52.496;13.456;2024-02-04T13:42:47;13.35;;;3.50;;
25758;SDS011;13604;52.496;13.456;2024-02-04T13:45:12;15.93;;;3.00;;
25758;SDS011;13604;52.496;13.456;2024-02-04T13:47:42;9.55;;;1.90;;
25758;SDS011;13604;52.496;13.456;2024-02-04T13:50:08;8.40;;;1.88;;
25758;SDS011;13604;52.496;13.456;2024-02-04T13:52:34;9.13;;;2.03;;
25758;SDS011;13604;52.496;13.456;2024-02-04T13:55:00;9.05;;;2.10;;
25758;SDS011;13604;52.496;13.456;2024-02-04T13:57:26;6.63;;;2.15;;
25758;SDS011;13604;52.496;13.456;2024-02-04T13:59:51;15.65;;;2.35;;
25758;SDS011;13604;52.496;13.456;2024-02-04T14:02:16;11.55;;;2.33;;
25758;SDS011;13604;52.496;13.456;2024-02-04T14:04:42;7.70;;;2.20;;
25758;SDS011;13604;52.496;13.456;2024-02-04T14:07:07;6.85;;;2.22;;
25758;SDS011;13604;52.496;13.456;2024-02-04T14:09:33;14.20;;;3.25;;
25758;SDS011;13604;52.496;13.456;2024-02-04T14:11:59;10.63;;;2.50;;
25758;SDS011;13604;52.496;13.456;2024-02-04T14:14:24;10.90;;;2.15;;
25758;SDS011;13604;52.496;13.456;2024-02-04T14:16:49;12.27;;;3.30;;
25758;SDS011;13604;52.496;13.456;2024-02-04T14:19:15;11.90;;;2.45;;
25758;SDS011;13604;52.496;13.456;2024-02-04T14:21:41;10.00;;;3.00;;